createdAt,value
2019-04-04T00:03:40.059Z,34.66
2019-04-04T00:08:43.645Z,34.45
2019-04-04T00:13:47.212Z,35.47
2019-04-04T00:18:50.872Z,35.75
2019-04-04T00:23:54.482Z,36.31
2019-04-04T00:28:58.088Z,36.81
2019-04-04T00:34:03.567Z,37.14
2019-04-04T00:39:09.568Z,37.32
2019-04-04T00:44:13.582Z,37.53
2019-04-04T00:49:17.191Z,37.21
2019-04-04T00:54:20.809Z,37.41
2019-04-04T00:59:24.386Z,37.62
2019-04-04T01:04:30.862Z,36.40
2019-04-04T01:09:33.290Z,35.09
2019-04-04T01:14:36.850Z,34.15
2019-04-04T01:19:40.463Z,33.32
2019-04-04T01:24:44.011Z,32.59
2019-04-04T01:29:47.600Z,32.38
2019-04-04T01:34:52.132Z,32.63
2019-04-04T01:39:56.410Z,32.66
2019-04-04T01:44:59.963Z,33.00
2019-04-04T01:50:03.636Z,33.24
2019-04-04T01:55:07.210Z,32.97
2019-04-04T02:00:14.776Z,32.76
2019-04-04T02:05:17.115Z,33.38
2019-04-04T02:10:20.698Z,33.80
2019-04-04T02:15:24.358Z,34.15
2019-04-04T02:20:27.970Z,34.54
2019-04-04T02:25:32.079Z,34.64
2019-04-04T02:30:36.893Z,35.07
2019-04-04T02:35:42.739Z,35.42
2019-04-04T02:40:45.784Z,36.04
2019-04-04T02:45:49.409Z,36.74
2019-04-04T02:50:53.315Z,36.05
2019-04-04T02:55:56.872Z,37.02
2019-04-04T03:01:00.633Z,36.88
2019-04-04T03:06:04.989Z,37.52
2019-04-04T03:11:08.542Z,35.43
2019-04-04T03:16:12.130Z,36.69
2019-04-04T03:21:15.694Z,36.87
2019-04-04T03:26:20.535Z,37.57
2019-04-04T03:31:24.246Z,37.81
2019-04-04T03:36:27.821Z,37.05
2019-04-04T03:41:35.405Z,37.99
2019-04-04T03:46:38.714Z,35.79
2019-04-04T03:51:42.023Z,35.68
2019-04-04T03:56:45.588Z,34.64
2019-04-04T04:01:49.182Z,33.67
2019-04-04T04:06:52.748Z,32.67
2019-04-04T04:11:56.349Z,31.90
2019-04-04T04:16:59.900Z,32.25
2019-04-04T04:22:03.474Z,32.54
2019-04-04T04:27:07.068Z,32.67
2019-04-04T04:32:10.638Z,32.86
2019-04-04T04:37:14.211Z,32.78
2019-04-04T04:42:20.939Z,32.78
2019-04-04T04:47:24.065Z,33.20
2019-04-04T04:52:27.777Z,33.52
2019-04-04T04:57:31.341Z,33.92
2019-04-04T05:02:34.938Z,34.17
2019-04-04T05:07:39.086Z,34.59
2019-04-04T05:12:42.735Z,34.49
2019-04-04T05:17:46.265Z,34.82
2019-04-04T05:22:49.852Z,34.82
2019-04-04T05:27:53.420Z,35.56
2019-04-04T05:32:57.037Z,35.50
2019-04-04T05:38:00.609Z,35.53
2019-04-04T05:43:05.236Z,33.74
2019-04-04T05:48:08.832Z,34.29
2019-04-04T05:53:12.384Z,32.23
2019-04-04T05:58:16.081Z,34.03
2019-04-04T06:03:19.686Z,34.53
2019-04-04T06:08:23.270Z,34.78
2019-04-04T06:13:27.065Z,33.48
2019-04-04T06:18:31.093Z,34.30
2019-04-04T06:23:34.835Z,33.45
2019-04-04T06:28:38.539Z,33.43
2019-04-04T06:33:42.096Z,32.41
2019-04-04T06:38:45.673Z,34.54
2019-04-04T06:43:49.252Z,34.65
2019-04-04T06:48:52.909Z,35.65
2019-04-04T06:53:59.364Z,35.13
2019-04-04T06:59:01.794Z,35.03
2019-04-04T07:04:05.360Z,34.16
2019-04-04T07:09:08.944Z,34.12
2019-04-04T07:14:12.506Z,34.17
2019-04-04T07:19:16.090Z,33.65
2019-04-04T07:24:19.656Z,33.24
2019-04-04T07:29:25.320Z,33.13
2019-04-04T07:34:28.537Z,33.12
2019-04-04T07:39:32.769Z,33.08
2019-04-04T07:44:36.556Z,33.05
2019-04-04T07:49:40.417Z,33.02
2019-04-04T07:54:43.989Z,32.50
2019-04-04T07:59:47.576Z,32.36
2019-04-04T08:04:51.153Z,32.42
2019-04-04T08:09:54.760Z,31.97
2019-04-04T08:14:58.416Z,32.26
2019-04-04T08:20:01.974Z,32.59
2019-04-04T08:25:05.830Z,32.46
2019-04-04T08:30:09.404Z,32.30
2019-04-04T08:35:13.010Z,32.39
2019-04-04T08:40:16.631Z,33.18
2019-04-04T08:45:20.249Z,32.45
2019-04-04T08:50:23.869Z,32.27
2019-04-04T08:55:27.489Z,32.88
2019-04-04T09:00:31.051Z,32.88
2019-04-04T09:05:34.730Z,32.29
2019-04-04T09:10:38.348Z,32.95
2019-04-04T09:15:41.973Z,33.09
2019-04-04T09:20:45.585Z,32.36
2019-04-04T09:25:49.211Z,33.90
2019-04-04T09:30:52.936Z,33.94
2019-04-04T09:35:56.551Z,33.45
2019-04-04T09:41:00.169Z,34.44
2019-04-04T09:46:03.791Z,34.34
2019-04-04T09:51:07.406Z,32.31
2019-04-04T09:56:10.953Z,33.69
2019-04-04T10:01:14.521Z,33.69
2019-04-04T10:06:18.102Z,34.06
2019-04-04T10:11:21.781Z,33.74
2019-04-04T10:16:25.605Z,32.89
2019-04-04T10:21:29.195Z,33.72
2019-04-04T10:26:32.755Z,33.57
2019-04-04T10:31:36.329Z,33.85
2019-04-04T10:36:39.935Z,32.81
2019-04-04T10:41:43.481Z,33.78
2019-04-04T10:46:47.436Z,34.33
2019-04-04T10:51:51.047Z,34.56
2019-04-04T10:56:54.597Z,34.54
2019-04-04T11:03:19.344Z,34.46
2019-04-04T11:08:23.006Z,35.41
2019-04-04T11:13:33.440Z,35.48
2019-04-04T11:18:31.894Z,34.88
2019-04-04T11:23:35.634Z,35.01
2019-04-04T11:28:39.741Z,34.54
2019-04-04T11:33:43.364Z,34.40
2019-04-04T11:38:46.982Z,35.29
2019-04-04T11:43:50.597Z,35.21
2019-04-04T11:48:54.213Z,35.20
2019-04-04T11:53:57.834Z,35.15
2019-04-04T11:59:01.968Z,35.60
2019-04-04T12:04:05.590Z,34.54
2019-04-04T12:09:09.888Z,35.78
2019-04-04T12:14:13.542Z,35.62
2019-04-04T12:19:17.163Z,35.64
2019-04-04T12:24:20.779Z,35.61
2019-04-04T12:29:24.463Z,35.61
2019-04-04T12:34:28.120Z,35.63
2019-04-04T12:39:31.841Z,35.47
2019-04-04T12:44:35.472Z,34.84
2019-04-04T12:49:39.078Z,35.46
2019-04-04T12:54:42.732Z,35.42
2019-04-04T12:59:46.326Z,35.38
2019-04-04T13:04:49.945Z,35.32
2019-04-04T13:09:53.784Z,35.26
2019-04-04T13:14:57.490Z,35.09
2019-04-04T13:20:01.121Z,35.01
2019-04-04T13:25:08.517Z,35.18
2019-04-04T13:30:13.156Z,34.98
2019-04-04T13:35:17.497Z,35.04
2019-04-04T13:40:21.110Z,33.30
2019-04-04T13:45:25.363Z,35.09
2019-04-04T13:50:29.790Z,33.63
2019-04-04T13:55:33.356Z,34.66
2019-04-04T14:00:37.028Z,35.00
2019-04-04T14:05:40.651Z,35.02
2019-04-04T14:10:44.262Z,35.09
2019-04-04T14:15:47.888Z,34.79
2019-04-04T14:21:03.460Z,34.95
2019-04-04T14:26:00.756Z,34.90
2019-04-04T14:31:05.303Z,35.01
2019-04-04T14:36:09.317Z,35.01
2019-04-04T14:41:13.056Z,35.03
2019-04-04T14:46:16.663Z,34.63
2019-04-04T14:51:20.292Z,35.02
2019-04-04T14:56:23.924Z,35.02
2019-04-04T15:01:27.530Z,35.13
2019-04-04T15:06:31.142Z,35.12
2019-04-04T15:11:34.763Z,35.13
2019-04-04T15:16:38.381Z,35.15
2019-04-04T15:21:42.006Z,35.15
2019-04-04T15:26:46.004Z,34.97
2019-04-04T15:31:49.648Z,34.95
2019-04-04T15:36:53.263Z,35.14
2019-04-04T15:41:56.887Z,35.16
2019-04-04T15:47:00.506Z,35.24
2019-04-04T15:52:05.149Z,34.19
2019-04-04T15:57:08.767Z,34.78
2019-04-04T16:02:12.387Z,34.47
2019-04-04T16:07:16.211Z,33.96
2019-04-04T16:12:19.833Z,33.40
2019-04-04T16:17:23.452Z,33.55
2019-04-04T16:22:27.077Z,33.24
2019-04-04T16:27:30.694Z,32.30
2019-04-04T16:32:34.665Z,30.62
2019-04-04T16:37:38.452Z,30.44
2019-04-04T16:42:42.066Z,30.46
2019-04-04T16:47:45.794Z,31.18
2019-04-04T16:52:58.447Z,31.89
2019-04-04T16:58:02.055Z,31.71
2019-04-04T17:03:05.677Z,31.88
2019-04-04T17:08:09.276Z,30.17
2019-04-04T17:13:12.895Z,29.66
2019-04-04T17:18:16.474Z,30.39
2019-04-04T17:23:20.146Z,30.59
2019-04-04T17:28:23.967Z,30.75
2019-04-04T17:33:28.739Z,30.63
2019-04-04T17:38:32.640Z,30.95
2019-04-04T17:43:36.811Z,31.01
2019-04-04T17:48:40.593Z,31.31
2019-04-04T17:53:44.668Z,31.48
2019-04-04T17:58:48.460Z,31.70
2019-04-04T18:03:52.219Z,31.82
2019-04-04T18:08:55.920Z,31.88
2019-04-04T18:13:59.601Z,31.81
2019-04-04T18:19:03.238Z,32.05
2019-04-04T18:24:06.848Z,32.44
2019-04-04T18:29:10.457Z,32.58
2019-04-04T18:34:14.359Z,32.82
2019-04-04T18:39:18.923Z,32.81
2019-04-04T18:44:22.550Z,33.19
2019-04-04T18:49:26.185Z,33.45
2019-04-04T18:54:29.790Z,33.70
2019-04-04T18:59:33.442Z,33.22
2019-04-04T19:04:37.030Z,31.94
2019-04-04T19:09:40.645Z,30.21
2019-04-04T19:14:44.263Z,28.56
2019-04-04T19:19:47.887Z,28.38
2019-04-04T19:24:51.608Z,28.49
2019-04-04T19:29:55.373Z,28.98
2019-04-04T19:34:59.051Z,29.41
2019-04-04T19:40:02.670Z,29.62
2019-04-04T19:45:07.826Z,30.03
2019-04-04T19:50:11.454Z,30.78
2019-04-04T19:55:15.173Z,31.10
2019-04-04T20:00:18.787Z,31.51
2019-04-04T20:05:22.405Z,32.17
2019-04-04T20:10:26.241Z,32.42
2019-04-04T20:15:30.424Z,32.60
2019-04-04T20:20:34.755Z,33.40
2019-04-04T20:25:38.670Z,33.82
2019-04-04T20:30:43.283Z,34.01
2019-04-04T20:35:47.808Z,34.02
2019-04-04T20:40:51.433Z,34.62
2019-04-04T20:45:55.049Z,34.17
2019-04-04T20:50:58.883Z,35.95
2019-04-04T20:56:02.608Z,36.65
2019-04-04T21:01:06.220Z,36.47
2019-04-04T21:06:09.938Z,36.21
2019-04-04T21:11:13.512Z,36.39
2019-04-04T21:16:17.177Z,40.12
2019-04-04T21:21:20.899Z,38.63
2019-04-04T21:26:24.521Z,38.48
2019-04-04T21:31:28.144Z,38.47
2019-04-04T21:36:31.861Z,38.28
2019-04-04T21:41:35.417Z,38.32
2019-04-04T21:46:39.119Z,38.22
2019-04-04T21:51:42.716Z,38.11
2019-04-04T21:56:46.276Z,38.07
2019-04-04T22:01:49.952Z,38.14
2019-04-04T22:06:53.583Z,38.45
2019-04-04T22:11:57.196Z,38.57
2019-04-04T22:17:00.914Z,38.28
2019-04-04T22:22:04.945Z,38.07
2019-04-04T22:27:08.564Z,37.94
2019-04-04T22:32:12.183Z,37.43
2019-04-04T22:37:15.802Z,37.73
2019-04-04T22:42:19.529Z,35.56
2019-04-04T22:47:23.250Z,33.76
2019-04-04T22:52:26.868Z,31.55
2019-04-04T22:57:30.496Z,29.89
2019-04-04T23:02:34.208Z,29.53
2019-04-04T23:07:37.831Z,30.12
2019-04-04T23:12:41.451Z,30.57
2019-04-04T23:17:45.504Z,31.45
2019-04-04T23:22:53.088Z,32.47
2019-04-04T23:27:54.664Z,32.54
2019-04-04T23:32:58.282Z,33.46
2019-04-04T23:38:01.906Z,33.53
2019-04-04T23:43:05.523Z,34.25
2019-04-04T23:48:09.137Z,34.32
2019-04-04T23:53:12.759Z,34.50
2019-04-04T23:58:16.377Z,34.97
